sensor_id;sensor_type;location;lat;lon;timestamp;pressure;altitude;pressure_sealevel;temperature;humidity
10688;BME280;5392;42.688;23.298;2024-01-07T00:01:15;93405.56;;;4.44;81.56
10688;BME280;5392;42.688;23.298;2024-01-07T00:03:40;93415.75;;;4.44;81.18
10688;BME280;5392;42.688;23.298;2024-01-07T00:06:07;93401.38;;;4.56;80.83
10688;BME280;5392;42.688;23.298;2024-01-07T00:08:33;93398.09;;;4.36;81.51
10688;BME280;5392;42.688;23.298;2024-01-07T00:10:58;93400.44;;;4.37;81.64
10688;BME280;5392;42.688;23.298;2024-01-07T00:13:24;93391.41;;;4.55;80.59
10688;BME280;5392;42.688;23.298;2024-01-07T00:15:49;93392.78;;;4.57;80.41
10688;BME280;5392;42.688;23.298;2024-01-07T00:18:15;93390.97;;;4.58;81.01
10688;BME280;5392;42.688;23.298;2024-01-07T00:20:40;93388.81;;;4.61;80.75
10688;BME280;5392;42.688;23.298;2024-01-07T00:23:06;93393.34;;;4.59;80.75
10688;BME280;5392;42.688;23.298;2024-01-07T00:25:31;93375.28;;;4.61;80.44
10688;BME280;5392;42.688;23.298;2024-01-07T00:27:56;93373.72;;;4.60;80.33
10688;BME280;5392;42.688;23.298;2024-01-07T00:30:22;93369.97;;;4.56;79.12
10688;BME280;5392;42.688;23.298;2024-01-07T00:32:48;93369.59;;;4.52;80.02
10688;BME280;5392;42.688;23.298;2024-01-07T00:35:16;93356.88;;;4.46;80.38
10688;BME280;5392;42.688;23.298;2024-01-07T00:37:42;93350.78;;;4.33;80.63
10688;BME280;5392;42.688;23.298;2024-01-07T00:40:08;93339.03;;;4.39;80.92
10688;BME280;5392;42.688;23.298;2024-01-07T00:42:33;93333.97;;;4.26;81.91
10688;BME280;5392;42.688;23.298;2024-01-07T00:44:59;93341.59;;;4.32;81.53
10688;BME280;5392;42.688;23.298;2024-01-07T00:47:24;93335.09;;;4.36;81.74
10688;BME280;5392;42.688;23.298;2024-01-07T00:49:50;93313.09;;;4.42;81.18
10688;BME280;5392;42.688;23.298;2024-01-07T00:52:15;93314.31;;;4.39;82.03
10688;BME280;5392;42.688;23.298;2024-01-07T00:54:41;93314.88;;;4.48;81.06
10688;BME280;5392;42.688;23.298;2024-01-07T00:57:06;93308.94;;;4.61;80.67
10688;BME280;5392;42.688;23.298;2024-01-07T00:59:32;93303.47;;;4.57;80.86
10688;BME280;5392;42.688;23.298;2024-01-07T01:01:57;93307.75;;;4.63;80.23
10688;BME280;5392;42.688;23.298;2024-01-07T01:04:23;93300.50;;;4.54;81.07
10688;BME280;5392;42.688;23.298;2024-01-07T01:06:48;93306.78;;;4.64;81.09
10688;BME280;5392;42.688;23.298;2024-01-07T01:09:14;93302.59;;;4.76;80.47
10688;BME280;5392;42.688;23.298;2024-01-07T01:11:39;93302.44;;;4.65;80.45
10688;BME280;5392;42.688;23.298;2024-01-07T01:14:04;93288.78;;;4.46;81.55
10688;BME280;5392;42.688;23.298;2024-01-07T01:16:30;93279.09;;;4.61;81.12
10688;BME280;5392;42.688;23.298;2024-01-07T01:18:55;93274.72;;;4.75;80.29
10688;BME280;5392;42.688;23.298;2024-01-07T01:21:21;93260.88;;;4.89;80.22
10688;BME280;5392;42.688;23.298;2024-01-07T01:23:47;93255.34;;;4.98;79.91
10688;BME280;5392;42.688;23.298;2024-01-07T01:26:13;93256.19;;;4.92;79.75
10688;BME280;5392;42.688;23.298;2024-01-07T01:28:38;93246.84;;;5.04;79.99
10688;BME280;5392;42.688;23.298;2024-01-07T01:31:03;93234.97;;;4.92;79.73
10688;BME280;5392;42.688;23.298;2024-01-07T01:33:30;93227.34;;;4.85;80.00
10688;BME280;5392;42.688;23.298;2024-01-07T01:35:55;93213.59;;;4.86;80.36
10688;BME280;5392;42.688;23.298;2024-01-07T01:38:21;93209.69;;;4.84;80.36
10688;BME280;5392;42.688;23.298;2024-01-07T01:40:53;93211.50;;;4.77;80.87
10688;BME280;5392;42.688;23.298;2024-01-07T01:43:25;93214.13;;;4.95;79.87
10688;BME280;5392;42.688;23.298;2024-01-07T01:45:52;93206.25;;;4.96;79.91
10688;BME280;5392;42.688;23.298;2024-01-07T01:48:18;93206.00;;;5.04;78.89
10688;BME280;5392;42.688;23.298;2024-01-07T01:50:44;93190.69;;;5.04;78.72
10688;BME280;5392;42.688;23.298;2024-01-07T01:53:10;93174.22;;;5.00;78.72
10688;BME280;5392;42.688;23.298;2024-01-07T01:55:35;93159.50;;;4.96;78.90
10688;BME280;5392;42.688;23.298;2024-01-07T01:58:01;93159.38;;;4.91;79.13
10688;BME280;5392;42.688;23.298;2024-01-07T02:00:29;93160.94;;;4.92;79.51
10688;BME280;5392;42.688;23.298;2024-01-07T02:02:55;93151.09;;;4.95;80.09
10688;BME280;5392;42.688;23.298;2024-01-07T02:05:21;93152.69;;;4.90;79.94
10688;BME280;5392;42.688;23.298;2024-01-07T02:07:47;93163.75;;;4.84;79.99
10688;BME280;5392;42.688;23.298;2024-01-07T02:10:13;93176.41;;;4.97;79.32
10688;BME280;5392;42.688;23.298;2024-01-07T02:12:39;93172.84;;;4.98;80.04
10688;BME280;5392;42.688;23.298;2024-01-07T02:15:05;93179.72;;;4.73;80.48
10688;BME280;5392;42.688;23.298;2024-01-07T02:17:31;93161.59;;;4.81;80.06
10688;BME280;5392;42.688;23.298;2024-01-07T02:19:56;93150.41;;;4.82;79.58
10688;BME280;5392;42.688;23.298;2024-01-07T02:22:22;93142.34;;;4.78;79.46
10688;BME280;5392;42.688;23.298;2024-01-07T02:24:48;93128.97;;;4.83;78.70
10688;BME280;5392;42.688;23.298;2024-01-07T02:27:13;93107.09;;;4.69;78.85
10688;BME280;5392;42.688;23.298;2024-01-07T02:29:39;93086.56;;;4.57;79.95
10688;BME280;5392;42.688;23.298;2024-01-07T02:32:05;93083.50;;;4.49;80.03
10688;BME280;5392;42.688;23.298;2024-01-07T02:34:30;93083.91;;;4.46;80.75
10688;BME280;5392;42.688;23.298;2024-01-07T02:36:56;93075.63;;;4.50;81.65
10688;BME280;5392;42.688;23.298;2024-01-07T02:39:21;93075.94;;;4.60;81.66
10688;BME280;5392;42.688;23.298;2024-01-07T02:41:47;93075.13;;;4.66;81.62
10688;BME280;5392;42.688;23.298;2024-01-07T02:44:13;93081.25;;;4.59;81.76
10688;BME280;5392;42.688;23.298;2024-01-07T02:46:38;93075.84;;;4.73;82.18
10688;BME280;5392;42.688;23.298;2024-01-07T02:49:04;93078.56;;;4.78;81.78
10688;BME280;5392;42.688;23.298;2024-01-07T02:51:29;93075.81;;;4.80;80.93
10688;BME280;5392;42.688;23.298;2024-01-07T02:53:55;93085.00;;;4.81;80.93
10688;BME280;5392;42.688;23.298;2024-01-07T02:56:20;93086.88;;;4.92;81.11
10688;BME280;5392;42.688;23.298;2024-01-07T02:58:45;93091.69;;;4.82;80.54
10688;BME280;5392;42.688;23.298;2024-01-07T03:01:11;93082.56;;;4.92;80.52
10688;BME280;5392;42.688;23.298;2024-01-07T03:03:37;93096.88;;;4.93;80.29
10688;BME280;5392;42.688;23.298;2024-01-07T03:06:03;93107.94;;;4.87;81.97
10688;BME280;5392;42.688;23.298;2024-01-07T03:08:28;93109.59;;;5.00;81.01
10688;BME280;5392;42.688;23.298;2024-01-07T03:10:54;93112.00;;;4.95;81.20
10688;BME280;5392;42.688;23.298;2024-01-07T03:13:19;93122.72;;;4.79;82.62
10688;BME280;5392;42.688;23.298;2024-01-07T03:15:45;93124.41;;;4.91;81.92
10688;BME280;5392;42.688;23.298;2024-01-07T03:18:10;93120.59;;;5.00;82.60
10688;BME280;5392;42.688;23.298;2024-01-07T03:20:36;93139.72;;;5.16;81.56
10688;BME280;5392;42.688;23.298;2024-01-07T03:23:02;93129.13;;;5.37;81.76
10688;BME280;5392;42.688;23.298;2024-01-07T03:25:27;93140.66;;;5.46;81.68
10688;BME280;5392;42.688;23.298;2024-01-07T03:27:53;93141.66;;;5.63;82.64
10688;BME280;5392;42.688;23.298;2024-01-07T03:30:18;93131.66;;;5.80;82.55
10688;BME280;5392;42.688;23.298;2024-01-07T03:32:44;93131.16;;;5.89;83.04
10688;BME280;5392;42.688;23.298;2024-01-07T03:35:09;93127.47;;;6.04;82.76
10688;BME280;5392;42.688;23.298;2024-01-07T03:37:35;93124.28;;;6.08;83.03
10688;BME280;5392;42.688;23.298;2024-01-07T03:40:01;93123.22;;;5.98;83.27
10688;BME280;5392;42.688;23.298;2024-01-07T03:42:27;93123.50;;;6.08;82.55
10688;BME280;5392;42.688;23.298;2024-01-07T03:44:52;93117.44;;;6.20;82.89
10688;BME280;5392;42.688;23.298;2024-01-07T03:47:18;93114.31;;;6.18;83.28
10688;BME280;5392;42.688;23.298;2024-01-07T03:49:43;93113.53;;;6.18;83.22
10688;BME280;5392;42.688;23.298;2024-01-07T03:52:09;93104.44;;;6.22;83.36
10688;BME280;5392;42.688;23.298;2024-01-07T03:54:35;93095.56;;;6.24;84.42
10688;BME280;5392;42.688;23.298;2024-01-07T03:57:00;93103.38;;;6.29;84.01
10688;BME280;5392;42.688;23.298;2024-01-07T03:59:26;93094.16;;;6.40;84.31
10688;BME280;5392;42.688;23.298;2024-01-07T04:01:56;93090.50;;;6.47;84.41
10688;BME280;5392;42.688;23.298;2024-01-07T04:04:22;93082.50;;;6.44;84.33
10688;BME280;5392;42.688;23.298;2024-01-07T04:06:48;93085.94;;;6.49;84.05
10688;BME280;5392;42.688;23.298;2024-01-07T04:09:13;93081.69;;;6.43;84.93
10688;BME280;5392;42.688;23.298;2024-01-07T04:11:40;93081.41;;;6.51;84.78
10688;BME280;5392;42.688;23.298;2024-01-07T04:14:06;93079.09;;;6.61;84.56
10688;BME280;5392;42.688;23.298;2024-01-07T04:16:31;93073.41;;;6.59;84.26
10688;BME280;5392;42.688;23.298;2024-01-07T04:18:57;93064.16;;;6.58;84.14
10688;BME280;5392;42.688;23.298;2024-01-07T04:21:22;93058.25;;;6.46;85.07
10688;BME280;5392;42.688;23.298;2024-01-07T04:23:48;93060.47;;;6.54;84.78
10688;BME280;5392;42.688;23.298;2024-01-07T04:26:13;93061.72;;;6.63;84.75
10688;BME280;5392;42.688;23.298;2024-01-07T04:28:41;93060.50;;;6.66;84.55
10688;BME280;5392;42.688;23.298;2024-01-07T04:31:07;93060.47;;;6.54;84.37
10688;BME280;5392;42.688;23.298;2024-01-07T04:33:33;93061.84;;;6.27;85.41
10688;BME280;5392;42.688;23.298;2024-01-07T04:35:58;93057.00;;;6.08;87.14
10688;BME280;5392;42.688;23.298;2024-01-07T04:38:28;93041.78;;;6.13;87.15
10688;BME280;5392;42.688;23.298;2024-01-07T04:40:54;93037.91;;;6.22;86.54
10688;BME280;5392;42.688;23.298;2024-01-07T04:43:19;93045.06;;;6.31;85.90
10688;BME280;5392;42.688;23.298;2024-01-07T04:45:45;93051.91;;;6.49;86.14
10688;BME280;5392;42.688;23.298;2024-01-07T04:48:10;93046.00;;;6.48;86.03
10688;BME280;5392;42.688;23.298;2024-01-07T04:50:36;93051.56;;;6.57;85.85
10688;BME280;5392;42.688;23.298;2024-01-07T04:53:02;93050.09;;;6.49;85.09
10688;BME280;5392;42.688;23.298;2024-01-07T04:55:29;93053.91;;;6.58;85.42
10688;BME280;5392;42.688;23.298;2024-01-07T04:57:55;93062.25;;;6.42;86.09
10688;BME280;5392;42.688;23.298;2024-01-07T05:00:21;93071.69;;;6.42;85.70
10688;BME280;5392;42.688;23.298;2024-01-07T05:02:46;93073.19;;;6.61;85.11
10688;BME280;5392;42.688;23.298;2024-01-07T05:05:12;93070.09;;;6.71;84.45
10688;BME280;5392;42.688;23.298;2024-01-07T05:07:37;93054.59;;;6.66;83.21
10688;BME280;5392;42.688;23.298;2024-01-07T05:10:04;93053.56;;;6.43;84.99
10688;BME280;5392;42.688;23.298;2024-01-07T05:12:29;93051.22;;;6.42;84.40
10688;BME280;5392;42.688;23.298;2024-01-07T05:14:55;93048.34;;;6.50;84.49
10688;BME280;5392;42.688;23.298;2024-01-07T05:17:20;93040.47;;;6.51;84.64
10688;BME280;5392;42.688;23.298;2024-01-07T05:19:46;93024.59;;;6.43;83.26
10688;BME280;5392;42.688;23.298;2024-01-07T05:22:11;93044.53;;;6.29;84.17
10688;BME280;5392;42.688;23.298;2024-01-07T05:24:37;93051.09;;;6.07;85.45
10688;BME280;5392;42.688;23.298;2024-01-07T05:27:04;93042.00;;;6.11;85.17
10688;BME280;5392;42.688;23.298;2024-01-07T05:29:29;93051.69;;;6.09;86.11
10688;BME280;5392;42.688;23.298;2024-01-07T05:31:55;93046.56;;;6.09;86.05
10688;BME280;5392;42.688;23.298;2024-01-07T05:34:20;93034.19;;;6.06;86.67
10688;BME280;5392;42.688;23.298;2024-01-07T05:36:46;93033.19;;;6.07;84.98
10688;BME280;5392;42.688;23.298;2024-01-07T05:39:11;93040.13;;;6.18;84.54
10688;BME280;5392;42.688;23.298;2024-01-07T05:41:37;93045.06;;;6.02;86.24
10688;BME280;5392;42.688;23.298;2024-01-07T05:44:06;93033.97;;;6.08;86.25
10688;BME280;5392;42.688;23.298;2024-01-07T05:46:32;93030.56;;;6.14;85.77
10688;BME280;5392;42.688;23.298;2024-01-07T05:48:58;93026.66;;;6.23;84.34
10688;BME280;5392;42.688;23.298;2024-01-07T05:51:23;93028.66;;;6.21;84.63
10688;BME280;5392;42.688;23.298;2024-01-07T05:53:49;93031.03;;;6.22;84.71
10688;BME280;5392;42.688;23.298;2024-01-07T05:56:14;93044.88;;;5.67;86.93
10688;BME280;5392;42.688;23.298;2024-01-07T05:58:40;93042.47;;;5.54;88.48
10688;BME280;5392;42.688;23.298;2024-01-07T06:01:07;93039.28;;;5.58;87.32
10688;BME280;5392;42.688;23.298;2024-01-07T06:03:33;93039.97;;;5.65;87.24
10688;BME280;5392;42.688;23.298;2024-01-07T06:05:59;93028.47;;;5.74;86.91
10688;BME280;5392;42.688;23.298;2024-01-07T06:08:25;93039.13;;;5.71;87.13
10688;BME280;5392;42.688;23.298;2024-01-07T06:10:51;93035.16;;;5.75;87.42
10688;BME280;5392;42.688;23.298;2024-01-07T06:13:16;93015.59;;;5.81;85.99
10688;BME280;5392;42.688;23.298;2024-01-07T06:15:42;93024.44;;;5.85;86.23
10688;BME280;5392;42.688;23.298;2024-01-07T06:18:07;93037.81;;;5.80;86.47
10688;BME280;5392;42.688;23.298;2024-01-07T06:20:33;93038.56;;;5.87;87.29
10688;BME280;5392;42.688;23.298;2024-01-07T06:22:58;93033.16;;;5.96;86.82
10688;BME280;5392;42.688;23.298;2024-01-07T06:25:24;93028.06;;;5.96;86.18
10688;BME280;5392;42.688;23.298;2024-01-07T06:27:51;93033.28;;;5.82;86.86
10688;BME280;5392;42.688;23.298;2024-01-07T06:30:17;93044.59;;;5.93;87.06
10688;BME280;5392;42.688;23.298;2024-01-07T06:32:44;93048.97;;;6.04;86.43
10688;BME280;5392;42.688;23.298;2024-01-07T06:35:10;93045.78;;;6.09;85.68
10688;BME280;5392;42.688;23.298;2024-01-07T06:37:36;93046.38;;;5.93;87.00
10688;BME280;5392;42.688;23.298;2024-01-07T06:40:01;93056.19;;;6.07;86.21
10688;BME280;5392;42.688;23.298;2024-01-07T06:42:27;93059.59;;;6.19;86.04
10688;BME280;5392;42.688;23.298;2024-01-07T06:44:52;93061.50;;;6.24;85.47
10688;BME280;5392;42.688;23.298;2024-01-07T06:47:18;93063.75;;;6.32;86.04
10688;BME280;5392;42.688;23.298;2024-01-07T06:49:44;93066.22;;;6.38;85.13
10688;BME280;5392;42.688;23.298;2024-01-07T06:52:10;93072.13;;;6.39;85.00
10688;BME280;5392;42.688;23.298;2024-01-07T06:54:36;93067.75;;;6.28;86.45
10688;BME280;5392;42.688;23.298;2024-01-07T06:57:01;93062.50;;;5.93;87.62
10688;BME280;5392;42.688;23.298;2024-01-07T06:59:27;93057.38;;;5.93;87.45
10688;BME280;5392;42.688;23.298;2024-01-07T07:01:53;93056.28;;;6.01;86.61
10688;BME280;5392;42.688;23.298;2024-01-07T07:04:37;93066.28;;;6.20;85.90
10688;BME280;5392;42.688;23.298;2024-01-07T07:07:02;93070.22;;;6.34;85.69
10688;BME280;5392;42.688;23.298;2024-01-07T07:09:28;93066.47;;;6.48;84.75
10688;BME280;5392;42.688;23.298;2024-01-07T07:11:53;93065.41;;;6.26;85.10
10688;BME280;5392;42.688;23.298;2024-01-07T07:14:19;93050.47;;;6.23;86.12
10688;BME280;5392;42.688;23.298;2024-01-07T07:16:44;93054.38;;;6.26;85.55
10688;BME280;5392;42.688;23.298;2024-01-07T07:19:10;93064.53;;;6.32;83.69
10688;BME280;5392;42.688;23.298;2024-01-07T07:21:40;93049.53;;;6.47;83.80
10688;BME280;5392;42.688;23.298;2024-01-07T07:24:05;93050.03;;;6.68;83.87
10688;BME280;5392;42.688;23.298;2024-01-07T07:26:31;93051.81;;;6.79;84.24
10688;BME280;5392;42.688;23.298;2024-01-07T07:28:57;93048.06;;;6.93;83.23
10688;BME280;5392;42.688;23.298;2024-01-07T07:31:22;93049.63;;;7.05;83.05
10688;BME280;5392;42.688;23.298;2024-01-07T07:33:48;93063.53;;;7.21;82.54
10688;BME280;5392;42.688;23.298;2024-01-07T07:36:14;93065.25;;;7.39;82.27
10688;BME280;5392;42.688;23.298;2024-01-07T07:38:40;93071.91;;;7.40;82.21
10688;BME280;5392;42.688;23.298;2024-01-07T07:41:06;93063.84;;;7.59;82.42
10688;BME280;5392;42.688;23.298;2024-01-07T07:43:33;93048.00;;;7.74;81.31
10688;BME280;5392;42.688;23.298;2024-01-07T07:45:58;93046.84;;;7.93;81.27
10688;BME280;5392;42.688;23.298;2024-01-07T07:48:25;93043.91;;;8.01;81.39
10688;BME280;5392;42.688;23.298;2024-01-07T07:50:51;93050.66;;;8.19;80.48
10688;BME280;5392;42.688;23.298;2024-01-07T07:53:17;93040.22;;;8.37;78.07
10688;BME280;5392;42.688;23.298;2024-01-07T07:55:42;93053.47;;;8.45;78.54
10688;BME280;5392;42.688;23.298;2024-01-07T07:58:08;93048.88;;;8.64;77.24
10688;BME280;5392;42.688;23.298;2024-01-07T08:00:33;93042.59;;;8.71;76.79
10688;BME280;5392;42.688;23.298;2024-01-07T08:02:59;93046.88;;;8.82;76.26
10688;BME280;5392;42.688;23.298;2024-01-07T08:05:24;93039.25;;;8.71;76.04
10688;BME280;5392;42.688;23.298;2024-01-07T08:07:50;93029.81;;;8.43;77.04
10688;BME280;5392;42.688;23.298;2024-01-07T08:10:15;93034.31;;;8.36;76.87
10688;BME280;5392;42.688;23.298;2024-01-07T08:12:41;93044.97;;;8.45;77.55
10688;BME280;5392;42.688;23.298;2024-01-07T08:15:07;93056.38;;;8.09;77.25
10688;BME280;5392;42.688;23.298;2024-01-07T08:17:33;93056.09;;;8.22;78.70
10688;BME280;5392;42.688;23.298;2024-01-07T08:19:58;93044.25;;;7.65;79.21
10688;BME280;5392;42.688;23.298;2024-01-07T08:22:24;93044.47;;;8.03;79.12
10688;BME280;5392;42.688;23.298;2024-01-07T08:24:50;93044.03;;;8.34;77.49
10688;BME280;5392;42.688;23.298;2024-01-07T08:27:15;93035.44;;;8.57;77.05
10688;BME280;5392;42.688;23.298;2024-01-07T08:29:44;93029.72;;;8.55;76.83
10688;BME280;5392;42.688;23.298;2024-01-07T08:32:09;93032.72;;;8.63;77.99
10688;BME280;5392;42.688;23.298;2024-01-07T08:34:35;93039.88;;;8.78;76.37
10688;BME280;5392;42.688;23.298;2024-01-07T08:37:01;93035.03;;;8.81;75.91
10688;BME280;5392;42.688;23.298;2024-01-07T08:39:26;93034.66;;;8.90;76.92
10688;BME280;5392;42.688;23.298;2024-01-07T08:41:54;93037.00;;;9.08;74.14
10688;BME280;5392;42.688;23.298;2024-01-07T08:44:19;93041.66;;;9.11;74.84
10688;BME280;5392;42.688;23.298;2024-01-07T08:46:45;93047.75;;;9.21;75.09
10688;BME280;5392;42.688;23.298;2024-01-07T08:49:11;93039.09;;;9.49;74.46
10688;BME280;5392;42.688;23.298;2024-01-07T08:51:36;93045.91;;;9.77;74.00
10688;BME280;5392;42.688;23.298;2024-01-07T08:54:03;93043.84;;;10.00;73.66
10688;BME280;5392;42.688;23.298;2024-01-07T08:56:29;93035.06;;;10.18;72.64
10688;BME280;5392;42.688;23.298;2024-01-07T08:58:54;93017.94;;;9.04;73.52
10688;BME280;5392;42.688;23.298;2024-01-07T09:01:20;93019.41;;;8.50;77.46
10688;BME280;5392;42.688;23.298;2024-01-07T09:03:45;93023.97;;;8.20;78.00
10688;BME280;5392;42.688;23.298;2024-01-07T09:06:11;93023.38;;;8.91;75.16
10688;BME280;5392;42.688;23.298;2024-01-07T09:08:55;93023.69;;;8.77;75.48
10688;BME280;5392;42.688;23.298;2024-01-07T09:11:20;93026.19;;;8.89;74.31
10688;BME280;5392;42.688;23.298;2024-01-07T09:13:46;93030.56;;;9.43;73.15
10688;BME280;5392;42.688;23.298;2024-01-07T09:16:14;93035.13;;;9.80;72.08
10688;BME280;5392;42.688;23.298;2024-01-07T09:18:40;93038.16;;;9.17;70.87
10688;BME280;5392;42.688;23.298;2024-01-07T09:21:06;93042.81;;;8.53;75.04
10688;BME280;5392;42.688;23.298;2024-01-07T09:23:31;93044.47;;;8.76;73.87
10688;BME280;5392;42.688;23.298;2024-01-07T09:25:59;93046.59;;;9.50;71.95
10688;BME280;5392;42.688;23.298;2024-01-07T09:28:25;93040.03;;;9.81;69.39
10688;BME280;5392;42.688;23.298;2024-01-07T09:30:50;93031.44;;;9.32;72.86
10688;BME280;5392;42.688;23.298;2024-01-07T09:33:16;93025.06;;;9.57;71.15
10688;BME280;5392;42.688;23.298;2024-01-07T09:35:42;93029.84;;;9.48;71.49
10688;BME280;5392;42.688;23.298;2024-01-07T09:38:09;93031.72;;;9.36;71.65
10688;BME280;5392;42.688;23.298;2024-01-07T09:40:34;93025.94;;;9.24;72.11
10688;BME280;5392;42.688;23.298;2024-01-07T09:43:00;93017.47;;;8.73;73.67
10688;BME280;5392;42.688;23.298;2024-01-07T09:45:26;93020.97;;;8.67;73.51
10688;BME280;5392;42.688;23.298;2024-01-07T09:47:54;93031.72;;;9.36;73.46
10688;BME280;5392;42.688;23.298;2024-01-07T09:50:20;93031.22;;;10.20;71.46
10688;BME280;5392;42.688;23.298;2024-01-07T09:52:45;93023.38;;;10.90;68.52
10688;BME280;5392;42.688;23.298;2024-01-07T09:55:26;93025.97;;;11.32;64.70
10688;BME280;5392;42.688;23.298;2024-01-07T09:57:55;93027.25;;;10.93;66.24
10688;BME280;5392;42.688;23.298;2024-01-07T10:00:20;93020.81;;;9.89;69.46
10688;BME280;5392;42.688;23.298;2024-01-07T10:02:46;93014.03;;;10.53;68.77
10688;BME280;5392;42.688;23.298;2024-01-07T10:05:11;93017.00;;;11.03;66.39
10688;BME280;5392;42.688;23.298;2024-01-07T10:07:37;93022.59;;;11.27;64.93
10688;BME280;5392;42.688;23.298;2024-01-07T10:10:16;93013.13;;;11.00;64.71
10688;BME280;5392;42.688;23.298;2024-01-07T10:12:44;93001.03;;;11.48;63.04
10688;BME280;5392;42.688;23.298;2024-01-07T10:15:10;92993.38;;;10.79;64.65
10688;BME280;5392;42.688;23.298;2024-01-07T10:17:36;92992.72;;;10.31;65.05
10688;BME280;5392;42.688;23.298;2024-01-07T10:20:02;92979.09;;;10.67;63.64
10688;BME280;5392;42.688;23.298;2024-01-07T10:22:29;92981.41;;;11.00;64.39
10688;BME280;5392;42.688;23.298;2024-01-07T10:24:55;92958.72;;;11.44;62.12
10688;BME280;5392;42.688;23.298;2024-01-07T10:27:22;92979.50;;;10.22;64.58
10688;BME280;5392;42.688;23.298;2024-01-07T10:29:48;92975.91;;;10.55;64.63
10688;BME280;5392;42.688;23.298;2024-01-07T10:32:19;92974.19;;;10.65;63.58
10688;BME280;5392;42.688;23.298;2024-01-07T10:34:46;92961.81;;;10.62;64.51
10688;BME280;5392;42.688;23.298;2024-01-07T10:37:14;92966.16;;;10.57;65.52
10688;BME280;5392;42.688;23.298;2024-01-07T10:39:40;92963.81;;;10.92;62.85
10688;BME280;5392;42.688;23.298;2024-01-07T10:42:06;92946.75;;;11.28;62.70
10688;BME280;5392;42.688;23.298;2024-01-07T10:44:33;92955.28;;;10.86;63.56
10688;BME280;5392;42.688;23.298;2024-01-07T10:46:59;92947.47;;;10.76;63.67
10688;BME280;5392;42.688;23.298;2024-01-07T10:49:26;92949.53;;;10.38;64.23
10688;BME280;5392;42.688;23.298;2024-01-07T10:52:08;92947.84;;;10.53;64.89
10688;BME280;5392;42.688;23.298;2024-01-07T10:54:35;92950.22;;;10.60;65.72
10688;BME280;5392;42.688;23.298;2024-01-07T10:57:15;92949.94;;;10.61;63.52
10688;BME280;5392;42.688;23.298;2024-01-07T10:59:47;92946.38;;;10.36;64.31
10688;BME280;5392;42.688;23.298;2024-01-07T11:02:13;92943.91;;;10.46;63.59
10688;BME280;5392;42.688;23.298;2024-01-07T11:04:56;92941.66;;;10.91;62.57
10688;BME280;5392;42.688;23.298;2024-01-07T11:07:33;92936.72;;;11.36;61.32
10688;BME280;5392;42.688;23.298;2024-01-07T11:10:13;92947.91;;;11.00;61.53
10688;BME280;5392;42.688;23.298;2024-01-07T11:12:40;92945.94;;;11.74;60.34
10688;BME280;5392;42.688;23.298;2024-01-07T11:15:05;92952.28;;;12.33;57.88
10688;BME280;5392;42.688;23.298;2024-01-07T11:20:20;92957.63;;;10.88;60.10
10688;BME280;5392;42.688;23.298;2024-01-07T11:22:46;92946.31;;;10.94;61.61
10688;BME280;5392;42.688;23.298;2024-01-07T11:25:32;92958.00;;;10.70;62.96
10688;BME280;5392;42.688;23.298;2024-01-07T11:27:58;92958.94;;;10.27;63.97
10688;BME280;5392;42.688;23.298;2024-01-07T11:30:26;92952.53;;;10.61;63.90
10688;BME280;5392;42.688;23.298;2024-01-07T11:33:01;92953.94;;;10.42;63.94
10688;BME280;5392;42.688;23.298;2024-01-07T11:35:55;92954.81;;;10.26;64.77
10688;BME280;5392;42.688;23.298;2024-01-07T11:38:24;92955.50;;;10.16;63.46
10688;BME280;5392;42.688;23.298;2024-01-07T11:40:50;92953.41;;;10.13;64.97
10688;BME280;5392;42.688;23.298;2024-01-07T11:43:16;92959.25;;;10.62;64.35
10688;BME280;5392;42.688;23.298;2024-01-07T11:45:41;92956.84;;;10.87;63.14
10688;BME280;5392;42.688;23.298;2024-01-07T11:48:07;92957.13;;;11.38;61.84
10688;BME280;5392;42.688;23.298;2024-01-07T11:50:32;92958.59;;;11.70;60.75
10688;BME280;5392;42.688;23.298;2024-01-07T11:52:58;92963.09;;;12.10;59.62
10688;BME280;5392;42.688;23.298;2024-01-07T11:55:24;92958.75;;;12.46;57.63
10688;BME280;5392;42.688;23.298;2024-01-07T11:57:51;92948.44;;;12.76;57.41
10688;BME280;5392;42.688;23.298;2024-01-07T12:00:17;92956.41;;;12.95;56.13
10688;BME280;5392;42.688;23.298;2024-01-07T12:02:43;92949.19;;;13.12;54.38
10688;BME280;5392;42.688;23.298;2024-01-07T12:05:08;92947.59;;;13.31;55.30
10688;BME280;5392;42.688;23.298;2024-01-07T12:07:34;92947.53;;;13.46;55.19
10688;BME280;5392;42.688;23.298;2024-01-07T12:10:02;92945.72;;;13.52;56.13
10688;BME280;5392;42.688;23.298;2024-01-07T12:12:28;92951.97;;;13.41;55.36
10688;BME280;5392;42.688;23.298;2024-01-07T12:14:54;92945.28;;;13.25;54.87
10688;BME280;5392;42.688;23.298;2024-01-07T12:17:21;92947.91;;;13.09;55.66
10688;BME280;5392;42.688;23.298;2024-01-07T12:19:47;92954.06;;;13.34;56.07
10688;BME280;5392;42.688;23.298;2024-01-07T12:22:13;92961.03;;;13.43;55.75
10688;BME280;5392;42.688;23.298;2024-01-07T12:24:38;92960.28;;;13.23;56.11
10688;BME280;5392;42.688;23.298;2024-01-07T12:27:04;92964.41;;;13.24;56.74
10688;BME280;5392;42.688;23.298;2024-01-07T12:29:30;92961.56;;;12.34;57.54
10688;BME280;5392;42.688;23.298;2024-01-07T12:31:55;92951.97;;;12.00;59.21
10688;BME280;5392;42.688;23.298;2024-01-07T12:34:21;92959.28;;;11.04;62.54
10688;BME280;5392;42.688;23.298;2024-01-07T12:36:49;92961.41;;;10.80;63.75
10688;BME280;5392;42.688;23.298;2024-01-07T12:39:14;92966.09;;;11.25;62.55
10688;BME280;5392;42.688;23.298;2024-01-07T12:41:41;92959.53;;;11.59;61.44
10688;BME280;5392;42.688;23.298;2024-01-07T12:44:06;92957.75;;;11.65;61.30
10688;BME280;5392;42.688;23.298;2024-01-07T12:46:34;92959.41;;;11.86;60.88
10688;BME280;5392;42.688;23.298;2024-01-07T12:48:59;92957.41;;;11.98;60.56
10688;BME280;5392;42.688;23.298;2024-01-07T12:51:25;92959.88;;;11.68;61.34
10688;BME280;5392;42.688;23.298;2024-01-07T12:53:50;92955.25;;;11.85;61.36
10688;BME280;5392;42.688;23.298;2024-01-07T12:56:16;92952.97;;;11.99;60.03
10688;BME280;5392;42.688;23.298;2024-01-07T12:58:42;92969.00;;;12.06;59.76
10688;BME280;5392;42.688;23.298;2024-01-07T13:01:07;92968.19;;;11.80;60.16
10688;BME280;5392;42.688;23.298;2024-01-07T13:03:33;92969.72;;;11.76;60.10
10688;BME280;5392;42.688;23.298;2024-01-07T13:05:58;92975.97;;;11.95;59.71